Time;durP1;ratioP1;P1;durP2;ratioP2;P2;SDS_P1;SDS_P2;PMS_P1;PMS_P2;Temp;Humidity;BMP_temperature;BMP_pressure;BME280_temperature;BME280_humidity;BME280_pressure;Samples;Min_cycle;Max_cycle;Signal;HPM_P1;HPM_P2
2021/07/27 15:03:02;;;;;;;6.70;3.25;;;;;;;33.35;30.73;100359.30;1813571;77;21027;-74
2021/07/27 15:05:32;;;;;;;5.87;3.72;;;;;;;33.70;30.37;100360.70;1826937;77;21004;-76
2021/07/27 15:08:00;;;;;;;9.73;3.83;;;;;;;33.95;30.24;100358.49;1822154;77;21084;-76
2021/07/27 15:10:27;;;;;;;13.10;3.90;;;;;;;34.06;29.65;100354.63;1830488;77;21525;-76
2021/07/27 15:12:54;;;;;;;6.50;3.70;;;;;;;34.00;29.63;100357.12;1836766;77;21453;-76
2021/07/27 15:15:21;;;;;;;4.92;3.60;;;;;;;33.92;29.40;100356.31;1816813;77;21710;-76
2021/07/27 15:17:48;;;;;;;7.22;3.33;;;;;;;33.84;29.13;100350.81;1816961;79;20963;-76
2021/07/27 15:20:14;;;;;;;7.53;3.60;;;;;;;33.81;29.24;100359.59;1815759;77;21439;-75
2021/07/27 15:22:41;;;;;;;6.00;3.62;;;;;;;33.95;29.27;100366.71;1835117;77;21418;-74
2021/07/27 15:25:09;;;;;;;6.58;4.10;;;;;;;33.96;29.53;100364.80;1785119;80;21404;-75
2021/07/27 15:27:35;;;;;;;8.43;3.72;;;;;;;34.01;29.40;100363.42;1784735;80;21838;-74
2021/07/27 15:30:07;;;;;;;8.80;3.80;;;;;;;34.07;29.88;100367.81;1785135;80;21066;-76
2021/07/27 15:32:35;;;;;;;7.42;3.80;;;;;;;34.10;29.94;100361.21;1816640;77;20987;-76
2021/07/27 15:35:03;;;;;;;7.87;3.55;;;;;;;34.05;30.04;100360.39;1818661;78;21071;-75
2021/07/27 15:37:32;;;;;;;4.95;3.70;;;;;;;34.07;30.21;100365.06;1827495;77;21019;-78
2021/07/27 15:39:59;;;;;;;10.45;3.92;;;;;;;34.02;29.77;100360.95;1820194;77;22450;-75
2021/07/27 15:42:25;;;;;;;5.70;3.85;;;;;;;33.86;29.87;100361.48;1818208;79;20837;-77
2021/07/27 15:44:52;;;;;;;8.75;3.77;;;;;;;33.84;29.29;100359.58;1819912;77;21550;-75
2021/07/27 15:47:18;;;;;;;5.12;3.72;;;;;;;33.68;29.81;100356.02;1776471;80;21389;-76
2021/07/27 15:49:46;;;;;;;6.83;3.83;;;;;;;33.62;29.77;100361.80;1778360;80;21502;-76
2021/07/27 15:52:13;;;;;;;6.30;3.80;;;;;;;33.62;30.39;100367.28;1779352;80;22465;-76
2021/07/27 15:54:41;;;;;;;8.15;3.75;;;;;;;33.76;30.17;100364.24;1779083;80;21519;-75
2021/07/27 15:57:08;;;;;;;6.20;3.70;;;;;;;33.92;30.47;100366.45;1769508;80;20964;-77
2021/07/27 15:59:37;;;;;;;7.92;4.12;;;;;;;34.02;30.61;100368.63;1752430;81;20928;-75
2021/07/27 16:02:03;;;;;;;7.25;3.58;;;;;;;34.08;30.92;100369.45;1748310;82;21057;-75
2021/07/27 16:04:30;;;;;;;8.40;3.87;;;;;;;34.21;30.81;100365.30;1723555;82;22442;-75
2021/07/27 16:06:57;;;;;;;9.98;4.25;;;;;;;34.26;30.86;100368.00;1720691;83;21435;-75
2021/07/27 16:09:24;;;;;;;9.35;4.00;;;;;;;34.10;31.68;100363.13;1720799;83;21507;-77
2021/07/27 16:11:52;;;;;;;7.03;4.05;;;;;;;34.04;32.13;100373.28;1720778;83;21008;-77
2021/07/27 16:14:19;;;;;;;8.58;4.47;;;;;;;34.04;32.10;100367.80;1721758;82;21584;-75
2021/07/27 16:16:46;;;;;;;11.10;4.37;;;;;;;33.94;32.33;100362.88;1720777;83;21857;-76
2021/07/27 16:19:13;;;;;;;9.60;4.62;;;;;;;33.77;32.77;100361.77;1720806;82;21543;-76
2021/07/27 16:21:39;;;;;;;11.80;4.17;;;;;;;33.59;33.83;100364.55;1720721;83;21554;-75
2021/07/27 16:24:06;;;;;;;12.47;4.90;;;;;;;33.34;34.85;100362.59;1721064;83;20968;-75
2021/07/27 16:26:35;;;;;;;9.98;4.70;;;;;;;33.09;36.09;100363.91;1720938;83;21072;-76
2021/07/27 16:29:01;;;;;;;10.30;4.67;;;;;;;32.83;36.54;100362.50;1721025;82;22301;-76
2021/07/27 16:31:28;;;;;;;10.58;4.45;;;;;;;32.59;37.59;100362.11;1733937;82;21617;-76
2021/07/27 16:33:54;;;;;;;16.70;5.55;;;;;;;32.27;38.37;100370.41;1750817;82;20980;-76
2021/07/27 16:36:21;;;;;;;25.00;8.93;;;;;;;31.97;39.59;100370.23;1730236;82;20988;-76
2021/07/27 16:38:50;;;;;;;24.75;7.90;;;;;;;31.69;40.59;100372.73;1750723;82;21055;-76
2021/07/27 16:41:17;;;;;;;16.32;5.83;;;;;;;31.42;41.02;100376.32;1748286;80;21838;-76
2021/07/27 16:43:44;;;;;;;11.93;5.20;;;;;;;31.15;41.44;100376.30;1750629;82;20972;-76
2021/07/27 16:46:11;;;;;;;9.53;4.90;;;;;;;30.87;42.19;100372.45;1766753;80;21000;-77
2021/07/27 16:48:39;;;;;;;7.55;5.22;;;;;;;30.63;42.78;100371.34;1749332;80;21447;-77
2021/07/27 16:51:07;;;;;;;12.07;5.15;;;;;;;30.42;43.52;100370.27;1720939;83;20976;-79
2021/07/27 16:53:33;;;;;;;7.62;4.70;;;;;;;30.20;43.81;100370.75;1720965;83;22904;-79
2021/07/27 16:56:00;;;;;;;7.35;4.62;;;;;;;30.01;44.09;100374.80;1738792;80;21454;-79
2021/07/27 16:58:26;;;;;;;19.12;6.37;;;;;;;29.84;44.78;100377.03;1750772;82;21503;-80
2021/07/27 17:00:54;;;;;;;13.68;6.03;;;;;;;29.69;44.98;100374.59;1751105;81;21011;-79
2021/07/27 17:03:21;;;;;;;10.38;5.05;;;;;;;29.54;45.67;100366.48;1750719;81;21020;-79
2021/07/27 17:05:47;;;;;;;8.55;5.30;;;;;;;29.38;45.55;100367.25;1758180;80;21791;-77
2021/07/27 17:08:14;;;;;;;12.18;5.42;;;;;;;29.23;45.94;100360.98;1766941;80;20996;-79
2021/07/27 17:10:41;;;;;;;8.30;5.47;;;;;;;29.13;46.11;100364.88;1768594;80;21003;-85
2021/07/27 17:13:09;;;;;;;16.02;5.67;;;;;;;29.01;46.36;100377.72;1751970;80;21112;-77
2021/07/27 17:15:35;;;;;;;11.43;5.17;;;;;;;28.85;46.64;100369.76;1764462;80;20999;-80
2021/07/27 17:18:02;;;;;;;10.08;5.17;;;;;;;28.72;47.01;100371.41;1732764;80;22159;-78
2021/07/27 17:20:29;;;;;;;11.10;5.85;;;;;;;28.64;47.67;100377.22;1730205;80;21055;-79
2021/07/27 17:22:56;;;;;;;10.05;5.65;;;;;;;28.51;48.13;100376.43;1747602;80;20952;-75
2021/07/27 17:25:23;;;;;;;18.87;6.03;;;;;;;28.40;48.13;100371.84;1748274;80;21010;-75
2021/07/27 17:27:49;;;;;;;15.15;6.05;;;;;;;28.29;48.38;100374.59;1775664;80;21059;-74
2021/07/27 17:30:16;;;;;;;8.83;5.97;;;;;;;28.19;48.98;100377.88;1762632;80;21775;-74
2021/07/27 17:32:42;;;;;;;12.75;6.40;;;;;;;27.98;49.77;100392.84;1749289;82;21052;-75
2021/07/27 17:35:10;;;;;;;12.70;5.87;;;;;;;27.98;49.77;100392.84;1746426;82;21072;-76
2021/07/27 17:37:37;;;;;;;12.15;5.87;;;;;;;27.87;50.00;100398.56;1688008;80;21039;-76
2021/07/27 17:40:05;;;;;;;10.85;6.40;;;;;;;27.79;50.26;100395.36;1725209;82;21051;-74
2021/07/27 17:42:32;;;;;;;14.87;6.37;;;;;;;27.67;50.36;100392.64;1720865;82;21841;-75
2021/07/27 17:44:59;;;;;;;11.33;6.20;;;;;;;27.58;50.42;100387.23;1739608;82;20992;-76
2021/07/27 17:47:25;;;;;;;12.07;5.87;;;;;;;27.52;50.61;100388.17;1744438;80;21472;-75
2021/07/27 17:49:52;;;;;;;11.33;6.10;;;;;;;27.43;51.20;100390.39;1744427;80;21047;-75
2021/07/27 17:52:21;;;;;;;11.78;6.15;;;;;;;27.35;51.53;100382.58;1744395;82;21076;-76
2021/07/27 17:54:48;;;;;;;8.15;6.03;;;;;;;27.26;51.73;100382.61;1746702;81;21853;-76
2021/07/27 17:57:14;;;;;;;13.20;6.42;;;;;;;27.19;52.20;100379.98;1744685;81;20985;-75
2021/07/27 17:59:41;;;;;;;11.57;6.35;;;;;;;27.12;52.30;100379.27;1748306;82;21003;-78
2021/07/27 18:02:08;;;;;;;10.65;6.25;;;;;;;27.06;52.73;100373.41;1749643;82;21071;-77
2021/07/27 18:04:35;;;;;;;10.05;6.05;;;;;;;27.01;52.88;100366.45;1749497;80;21080;-77
2021/07/27 18:07:01;;;;;;;13.22;6.10;;;;;;;26.95;53.05;100364.67;1751228;80;21814;-78
2021/07/27 18:09:28;;;;;;;11.05;6.67;;;;;;;26.89;53.21;100361.52;1749578;81;21471;-82
2021/07/27 18:11:55;;;;;;;13.25;6.67;;;;;;;26.82;53.33;100367.83;1772167;80;21044;-81
2021/07/27 18:14:22;;;;;;;12.28;6.50;;;;;;;26.76;53.12;100367.94;1765150;80;20999;-82
2021/07/27 18:16:48;;;;;;;11.18;6.28;;;;;;;26.69;53.34;100363.95;1749005;82;21008;-80
2021/07/27 18:19:15;;;;;;;13.85;6.45;;;;;;;26.62;53.42;100368.62;1750553;80;21771;-77
2021/07/27 18:21:42;;;;;;;14.73;7.37;;;;;;;26.56;53.41;100358.70;1764581;80;21014;-79
2021/07/27 18:24:09;;;;;;;14.70;6.78;;;;;;;26.51;53.39;100353.13;1770640;81;21015;-76
2021/07/27 18:26:36;;;;;;;12.53;7.10;;;;;;;26.47;53.64;100349.23;1770699;79;21033;-76
2021/07/27 18:29:04;;;;;;;15.80;7.20;;;;;;;26.44;54.02;100347.81;1770422;79;21097;-77
2021/07/27 18:31:30;;;;;;;10.70;7.78;;;;;;;26.39;54.19;100353.06;1741139;81;21812;-79
2021/07/27 18:33:57;;;;;;;11.97;7.37;;;;;;;26.35;54.19;100342.89;1723147;82;21087;-76
2021/07/27 18:36:24;;;;;;;21.93;7.22;;;;;;;26.31;54.04;100340.31;1745817;82;20992;-75
2021/07/27 18:38:50;;;;;;;11.97;7.55;;;;;;;26.29;54.12;100336.48;1747359;82;21028;-78
2021/07/27 18:41:17;;;;;;;13.25;6.92;;;;;;;26.31;54.15;100336.25;1743259;82;21016;-76
2021/07/27 18:43:46;;;;;;;10.93;7.47;;;;;;;26.31;54.39;100322.72;1743315;80;22171;-77
2021/07/27 18:46:13;;;;;;;14.03;8.03;;;;;;;26.33;54.26;100321.95;1744231;82;21019;-79
2021/07/27 18:48:39;;;;;;;16.60;8.45;;;;;;;26.34;53.95;100319.02;1744645;80;21059;-79
2021/07/27 18:51:06;;;;;;;18.50;8.90;;;;;;;26.36;53.24;100321.52;1742151;80;21012;-81
2021/07/27 18:53:36;;;;;;;15.18;8.40;;;;;;;26.41;53.08;100323.04;1749122;82;21051;-79
2021/07/27 18:56:03;;;;;;;13.38;8.88;;;;;;;26.44;52.87;100326.64;1753571;80;21833;-77
2021/07/27 18:58:30;;;;;;;23.20;9.45;;;;;;;26.47;52.64;100322.14;1766723;80;21043;-80
2021/07/27 19:00:56;;;;;;;18.30;9.70;;;;;;;26.48;52.75;100317.85;1757820;80;21489;-82
2021/07/27 19:03:23;;;;;;;13.90;9.90;;;;;;;26.49;52.43;100311.91;1763807;78;21590;-82
2021/07/27 19:05:51;;;;;;;17.75;10.65;;;;;;;26.49;52.25;100315.44;1787879;79;21462;-81
2021/07/27 19:08:18;;;;;;;15.93;10.18;;;;;;;26.48;52.38;100315.14;1813824;79;22633;-82
2021/07/27 19:10:54;;;;;;;21.87;10.00;;;;;;;26.49;52.29;100311.91;1820573;78;22644;-82
2021/07/27 19:13:23;;;;;;;18.27;10.30;;;;;;;26.44;52.38;100309.89;1791391;80;21031;-83
2021/07/27 19:15:51;;;;;;;16.10;9.83;;;;;;;26.43;52.29;100306.03;1779898;79;21877;-82
2021/07/27 19:18:18;;;;;;;21.05;9.78;;;;;;;26.41;52.14;100302.20;1777249;80;21470;-82
2021/07/27 19:20:47;;;;;;;17.02;10.08;;;;;;;26.38;52.24;100295.89;1775486;80;21048;-82
2021/07/27 19:23:13;;;;;;;24.15;11.00;;;;;;;26.33;52.21;100301.12;1760170;81;21658;-82
2021/07/27 19:25:40;;;;;;;16.40;10.08;;;;;;;26.25;52.38;100294.16;1760598;81;21463;-82
2021/07/27 19:28:06;;;;;;;16.95;9.85;;;;;;;26.21;52.60;100293.46;1707921;81;22270;-82
2021/07/27 19:30:33;;;;;;;17.77;9.93;;;;;;;26.13;52.99;100292.41;1759519;81;21095;-83
2021/07/27 19:32:59;;;;;;;18.82;9.70;;;;;;;26.04;53.22;100299.16;1759649;81;21122;-83
2021/07/27 19:35:26;;;;;;;13.78;9.85;;;;;;;25.92;53.68;100300.44;1759466;81;21299;-79
2021/07/27 19:37:53;;;;;;;23.05;10.40;;;;;;;25.77;54.24;100301.31;1777550;80;21075;-80
2021/07/27 19:40:20;;;;;;;21.60;9.90;;;;;;;25.62;54.43;100302.47;1702784;83;21538;-80
2021/07/27 19:43:02;;;;;;;15.15;10.10;;;;;;;25.49;54.75;100315.29;1719249;83;21111;-79
2021/07/27 19:45:26;;;;;;;16.02;9.98;;;;;;;25.35;54.87;100317.25;1697933;84;21033;-79
2021/07/27 19:50:15;;;;;;;16.90;10.43;;;;;;;25.09;55.84;100319.12;1725538;81;20968;-78
2021/07/27 19:52:41;;;;;;;17.92;10.65;;;;;;;24.98;56.09;100316.22;1742045;81;21808;-80
2021/07/27 19:55:10;;;;;;;19.50;10.45;;;;;;;24.87;56.23;100319.09;1726213;83;21001;-77
2021/07/27 19:57:36;;;;;;;17.15;10.65;;;;;;;24.77;56.60;100316.03;1739547;81;21521;-81
2021/07/27 20:00:03;;;;;;;16.30;10.60;;;;;;;24.69;56.93;100323.03;1734196;81;20969;-79
2021/07/27 20:02:33;;;;;;;18.67;10.93;;;;;;;24.59;57.13;100318.62;1747813;81;21431;-82
2021/07/27 20:05:00;;;;;;;19.42;10.95;;;;;;;24.52;57.54;100323.55;1713203;81;21822;-82
2021/07/27 20:07:26;;;;;;;17.60;11.03;;;;;;;24.44;57.78;100330.53;1731468;81;20959;-81
2021/07/27 20:09:53;;;;;;;19.52;11.33;;;;;;;24.40;58.06;100336.03;1741332;81;20985;-81
2021/07/27 20:12:20;;;;;;;15.00;10.82;;;;;;;24.35;58.41;100337.20;1759824;80;21036;-81
2021/07/27 20:14:46;;;;;;;18.07;10.58;;;;;;;24.33;58.61;100335.77;1744318;81;21485;-81
2021/07/27 20:17:12;;;;;;;18.45;10.75;;;;;;;24.31;58.81;100337.79;1730878;82;22854;-81
2021/07/27 20:19:39;;;;;;;18.80;10.82;;;;;;;24.31;58.96;100333.74;1746253;80;21047;-80
2021/07/27 20:22:06;;;;;;;16.82;10.72;;;;;;;24.30;59.00;100340.19;1743867;82;21103;-80
2021/07/27 20:24:32;;;;;;;16.57;11.80;;;;;;;24.28;58.92;100347.98;1746534;82;21013;-80
2021/07/27 20:26:59;;;;;;;17.80;11.00;;;;;;;24.29;58.79;100347.45;1749775;82;21580;-81
2021/07/27 20:29:25;;;;;;;21.12;11.08;;;;;;;24.30;58.58;100346.41;1744613;82;21784;-80
2021/07/27 20:31:52;;;;;;;18.92;10.90;;;;;;;24.32;58.64;100339.48;1737574;82;20959;-80
2021/07/27 20:34:18;;;;;;;17.60;10.63;;;;;;;24.32;58.80;100338.98;1737631;82;20994;-80
2021/07/27 20:36:45;;;;;;;18.02;10.88;;;;;;;24.35;58.91;100343.95;1738966;82;20956;-80
2021/07/27 20:39:11;;;;;;;17.32;10.78;;;;;;;24.38;58.90;100344.87;1734477;81;21011;-77
2021/07/27 20:41:37;;;;;;;16.02;10.18;;;;;;;24.40;58.93;100346.83;1740228;82;22271;-77
2021/07/27 20:44:05;;;;;;;20.05;10.50;;;;;;;24.43;58.74;100344.25;1752657;80;20976;-77
2021/07/27 20:46:32;;;;;;;17.17;10.43;;;;;;;24.45;58.72;100347.03;1746213;82;20966;-79
2021/07/27 20:49:01;;;;;;;16.93;10.10;;;;;;;24.47;58.79;100345.46;1743629;82;20995;-76
2021/07/27 20:51:29;;;;;;;15.45;9.60;;;;;;;24.46;58.67;100347.34;1749429;82;21501;-84
2021/07/27 20:53:57;;;;;;;14.33;10.28;;;;;;;24.50;58.58;100352.61;1749144;81;22219;-82
2021/07/27 20:56:25;;;;;;;15.08;10.03;;;;;;;24.50;58.56;100348.55;1720080;83;20949;-80
2021/07/27 20:58:52;;;;;;;18.30;10.03;;;;;;;24.51;58.85;100348.03;1720007;83;20960;-81
2021/07/27 21:01:20;;;;;;;13.95;10.13;;;;;;;24.49;58.85;100346.07;1720154;83;21020;-81
2021/07/27 21:03:49;;;;;;;16.32;9.45;;;;;;;24.48;58.81;100345.25;1748211;82;21460;-81
2021/07/27 21:06:16;;;;;;;13.28;9.40;;;;;;;24.50;57.95;100347.73;1749948;81;22502;-82
2021/07/27 21:08:45;;;;;;;18.95;10.03;;;;;;;24.53;58.12;100342.75;1749682;82;21378;-81
2021/07/27 21:11:14;;;;;;;15.30;9.80;;;;;;;24.58;58.32;100342.62;1754552;81;20974;-81
2021/07/27 21:13:41;;;;;;;14.83;9.90;;;;;;;24.59;58.33;100345.63;1754938;81;20997;-81
2021/07/27 21:16:07;;;;;;;13.38;9.88;;;;;;;24.58;58.80;100344.80;1727741;81;21060;-81
2021/07/27 21:18:34;;;;;;;16.70;9.90;;;;;;;24.59;58.95;100341.56;1755282;81;22208;-81
2021/07/27 21:21:02;;;;;;;12.82;9.10;;;;;;;24.60;58.86;100335.95;1754766;81;21545;-81
2021/07/27 21:23:29;;;;;;;15.08;8.95;;;;;;;24.63;58.32;100338.77;1755450;81;21003;-81
2021/07/27 21:26:02;;;;;;;12.93;7.53;;;;;;;24.63;57.39;100337.41;1755556;81;20987;-81
2021/07/27 21:28:26;;;;;;;12.20;6.85;;;;;;;24.67;54.87;100337.28;1755172;81;21054;-81
2021/07/27 21:30:53;;;;;;;12.07;6.67;;;;;;;24.75;53.70;100333.81;1755395;81;21876;-81
2021/07/27 21:33:20;;;;;;;10.23;6.95;;;;;;;24.82;52.83;100333.80;1755172;81;20967;-79
2021/07/27 21:35:47;;;;;;;16.02;7.67;;;;;;;24.89;51.79;100324.28;1755607;81;20995;-81
2021/07/27 21:38:15;;;;;;;12.58;7.53;;;;;;;24.95;51.26;100320.72;1754492;80;20978;-79
2021/07/27 21:40:41;;;;;;;11.12;7.22;;;;;;;25.01;50.47;100314.46;1754427;80;20984;-81
2021/07/27 21:43:08;;;;;;;14.85;8.68;;;;;;;25.07;49.83;100315.78;1755287;81;21850;-81
2021/07/27 21:45:36;;;;;;;19.05;8.43;;;;;;;25.11;49.30;100318.89;1755167;81;20992;-81
2021/07/27 21:48:03;;;;;;;17.32;8.55;;;;;;;25.16;48.63;100322.28;1698612;81;21067;-80
2021/07/27 21:50:29;;;;;;;14.68;7.60;;;;;;;25.20;48.49;100318.94;1741178;81;21005;-81
2021/07/27 21:52:56;;;;;;;10.18;6.85;;;;;;;25.23;48.02;100314.44;1725823;81;21059;-80
2021/07/27 21:55:22;;;;;;;13.35;6.30;;;;;;;25.27;47.61;100310.76;1751101;80;21863;-80
2021/07/27 21:57:49;;;;;;;10.78;5.22;;;;;;;25.32;47.10;100317.70;1751624;80;20991;-81
2021/07/27 22:00:16;;;;;;;7.80;4.85;;;;;;;25.35;46.35;100309.14;1748342;80;21334;-80
2021/07/27 22:02:43;;;;;;;8.80;4.65;;;;;;;25.39;46.08;100310.38;1755549;80;21054;-80
2021/07/27 22:05:11;;;;;;;10.18;4.20;;;;;;;25.43;45.58;100313.45;1765428;80;20980;-81
2021/07/27 22:07:38;;;;;;;7.90;4.55;;;;;;;25.47;44.92;100316.84;1729840;80;21797;-80
2021/07/27 22:10:06;;;;;;;5.90;4.70;;;;;;;25.51;45.07;100320.77;1741258;80;20960;-79
2021/07/27 22:12:32;;;;;;;12.23;4.62;;;;;;;25.54;45.15;100324.38;1737427;80;21003;-79
2021/07/27 22:14:59;;;;;;;7.75;5.10;;;;;;;25.54;45.34;100318.97;1766240;80;21000;-80
2021/07/27 22:17:26;;;;;;;9.58;4.67;;;;;;;25.53;45.49;100315.97;1729672;80;20944;-80
2021/07/27 22:19:52;;;;;;;6.78;5.12;;;;;;;25.52;45.68;100317.54;1782593;80;21700;-80
2021/07/27 22:22:19;;;;;;;9.53;5.30;;;;;;;25.50;46.19;100309.66;1782816;80;21135;-80
2021/07/27 22:24:46;;;;;;;7.80;5.53;;;;;;;25.46;46.09;100308.95;1785313;80;20949;-80
2021/07/27 22:27:12;;;;;;;6.70;4.83;;;;;;;25.43;46.15;100306.17;1762059;80;21039;-80
2021/07/27 22:29:38;;;;;;;9.53;5.08;;;;;;;25.40;46.13;100304.74;1748631;80;21109;-80
2021/07/27 22:32:06;;;;;;;12.90;5.35;;;;;;;25.39;45.96;100311.73;1770037;80;22234;-80
2021/07/27 22:34:33;;;;;;;8.70;5.08;;;;;;;25.38;45.75;100305.98;1751982;80;21020;-80
2021/07/27 22:37:00;;;;;;;9.53;5.05;;;;;;;25.36;45.42;100293.22;1749040;80;21014;-80
2021/07/27 22:39:26;;;;;;;10.08;4.75;;;;;;;25.35;45.00;100297.80;1728171;83;21745;-80
2021/07/27 22:41:53;;;;;;;10.28;4.80;;;;;;;25.38;45.14;100296.03;1733350;80;21075;-80
2021/07/27 22:44:19;;;;;;;10.15;4.80;;;;;;;25.38;45.18;100282.52;1769961;80;22106;-80
2021/07/27 22:46:46;;;;;;;9.70;4.65;;;;;;;25.37;44.81;100284.05;1752026;81;20988;-80
2021/07/27 22:49:13;;;;;;;8.63;4.42;;;;;;;25.36;44.52;100285.11;1729274;81;21361;-80
2021/07/27 22:51:39;;;;;;;7.03;4.90;;;;;;;25.38;44.62;100278.95;1758287;81;21511;-80
2021/07/27 22:54:06;;;;;;;6.00;4.53;;;;;;;25.39;44.55;100276.58;1758588;81;21401;-80
2021/07/27 22:56:32;;;;;;;7.72;4.40;;;;;;;25.39;44.59;100274.70;1758236;81;21840;-80
2021/07/27 22:58:59;;;;;;;10.80;4.62;;;;;;;25.41;44.33;100271.77;1773619;80;21063;-80
2021/07/27 23:01:25;;;;;;;11.85;4.85;;;;;;;25.40;44.14;100263.36;1739683;80;20959;-80
2021/07/27 23:03:55;;;;;;;9.60;4.60;;;;;;;25.41;44.14;100259.60;1743112;80;20972;-80
2021/07/27 23:06:21;;;;;;;10.25;4.58;;;;;;;25.40;44.22;100258.78;1766937;80;21441;-80
2021/07/27 23:08:48;;;;;;;9.48;4.30;;;;;;;25.40;43.82;100266.89;1728109;83;22677;-81
2021/07/27 23:11:15;;;;;;;10.88;4.25;;;;;;;25.40;43.44;100262.83;1783465;80;20932;-79
2021/07/27 23:13:41;;;;;;;9.65;4.50;;;;;;;25.44;43.28;100267.78;1758161;80;21496;-80
2021/07/27 23:16:17;;;;;;;8.45;4.28;;;;;;;25.46;43.10;100261.63;1763272;80;21391;-80
2021/07/27 23:18:46;;;;;;;8.03;3.85;;;;;;;25.48;43.14;100253.62;1767599;80;21014;-80
2021/07/27 23:21:13;;;;;;;6.95;4.05;;;;;;;25.49;43.02;100260.67;1716734;80;21988;-80
2021/07/27 23:23:40;;;;;;;8.60;4.15;;;;;;;25.51;43.12;100259.92;1785227;80;20908;-80
2021/07/27 23:26:15;;;;;;;8.65;4.37;;;;;;;25.51;42.96;100257.22;1756721;80;21382;-80
2021/07/27 23:28:39;;;;;;;8.78;4.20;;;;;;;25.52;42.99;100260.75;1737263;80;20987;-80
2021/07/27 23:31:05;;;;;;;6.42;4.33;;;;;;;25.52;43.06;100256.69;1723121;80;20940;-80
2021/07/27 23:33:33;;;;;;;5.72;3.72;;;;;;;25.51;42.93;100257.22;1779962;80;21726;-80
2021/07/27 23:35:59;;;;;;;6.87;4.00;;;;;;;25.48;43.15;100250.91;1764063;80;21001;-81
2021/07/27 23:38:25;;;;;;;5.97;3.90;;;;;;;25.47;43.10;100248.41;1715248;82;21027;-80
2021/07/27 23:40:52;;;;;;;7.47;4.03;;;;;;;25.45;42.72;100253.21;1741986;80;20954;-80
2021/07/27 23:43:18;;;;;;;8.33;4.10;;;;;;;25.44;42.58;100251.56;1770794;80;21012;-80
2021/07/27 23:45:45;;;;;;;8.48;4.58;;;;;;;25.45;42.73;100249.16;1742758;80;22835;-80
2021/07/27 23:48:13;;;;;;;6.95;3.98;;;;;;;25.45;42.86;100244.58;1746416;80;21047;-80
2021/07/27 23:50:40;;;;;;;5.97;3.98;;;;;;;25.45;42.69;100245.10;1772375;80;20988;-80
2021/07/27 23:53:06;;;;;;;7.37;3.60;;;;;;;25.43;42.86;100231.81;1773450;80;21530;-80
2021/07/27 23:55:38;;;;;;;7.33;3.75;;;;;;;25.40;42.80;100222.80;1757857;80;20937;-80
2021/07/27 23:58:06;;;;;;;7.03;4.05;;;;;;;25.38;42.89;100230.28;1734940;81;21840;-80
